EWG7NY EDDS-LIMC
Flight info
| Callsign | EWG7NY |
|---|---|
| Flight time | 0h 43m |
| Altitude | 23000 |
| Route | ROTWE5B ROTWE Y126 TUBLO N850 NATOR DCT TRA DCT BASGO Z424 AKASU/N0398F190 Z424 RIXUV |
| Aircraft | A319/M-SDE3FGHIRWY/LB1 |
Departure
| Time | 2026-05-06 06:47 |
|---|---|
| Airport | Stuttgart Airport (EDDS) |
Arrival
| Time | 2026-05-06 07:30 |
|---|---|
| Airport | Milan Malpensa International Airport (LIMC) |
| Time | Latitude | Longitude | Altitude | Speed | Heading |
|---|---|---|---|---|---|
| 2026-05-06 06:16 | 48.68712 | 9.19266 | 1314 ft | 0 kts | 164° |
| 2026-05-06 06:18 | 48.68716 | 9.19264 | 1314 ft | 0 kts | 164° |
| 2026-05-06 06:41 | 48.68706 | 9.19269 | 1314 ft | 4 kts | 163° |
| 2026-05-06 06:41 | 48.68662 | 9.19319 | 1311 ft | 13 kts | 104° |
| 2026-05-06 06:41 | 48.68692 | 9.19503 | 1306 ft | 22 kts | 74° |
| 2026-05-06 06:42 | 48.68739 | 9.19751 | 1299 ft | 28 kts | 74° |
| 2026-05-06 06:42 | 48.68837 | 9.20027 | 1295 ft | 30 kts | 62° |
| 2026-05-06 06:42 | 48.68895 | 9.20331 | 1288 ft | 33 kts | 74° |
| 2026-05-06 06:42 | 48.68947 | 9.20608 | 1283 ft | 24 kts | 74° |
| 2026-05-06 06:43 | 48.68999 | 9.20879 | 1274 ft | 29 kts | 74° |
| 2026-05-06 06:43 | 48.69051 | 9.21154 | 1273 ft | 19 kts | 75° |
| 2026-05-06 06:43 | 48.69093 | 9.21374 | 1268 ft | 24 kts | 73° |
| 2026-05-06 06:43 | 48.69144 | 9.21648 | 1256 ft | 30 kts | 73° |
| 2026-05-06 06:44 | 48.69196 | 9.21916 | 1259 ft | 26 kts | 74° |
| 2026-05-06 06:44 | 48.69251 | 9.22209 | 1253 ft | 32 kts | 74° |
| 2026-05-06 06:44 | 48.69311 | 9.22522 | 1240 ft | 28 kts | 74° |
| 2026-05-06 06:44 | 48.69369 | 9.22826 | 1229 ft | 30 kts | 73° |
| 2026-05-06 06:45 | 48.69427 | 9.23136 | 1223 ft | 32 kts | 74° |
| 2026-05-06 06:45 | 48.69488 | 9.23458 | 1216 ft | 30 kts | 74° |
| 2026-05-06 06:45 | 48.69539 | 9.23729 | 1211 ft | 28 kts | 74° |
| 2026-05-06 06:45 | 48.69587 | 9.23982 | 1205 ft | 19 kts | 73° |
| 2026-05-06 06:46 | 48.69610 | 9.24159 | 1204 ft | 15 kts | 106° |
| 2026-05-06 06:46 | 48.69555 | 9.24281 | 1194 ft | 17 kts | 140° |
| 2026-05-06 06:46 | 48.69426 | 9.24345 | 1190 ft | 17 kts | 176° |
| 2026-05-06 06:46 | 48.69365 | 9.24188 | 1194 ft | 23 kts | 255° |
| 2026-05-06 06:47 | 48.69263 | 9.23645 | 1205 ft | 87 kts | 253° |
| 2026-05-06 06:47 | 48.69041 | 9.22483 | 1228 ft | 142 kts | 254° |
| 2026-05-06 06:47 | 48.68755 | 9.20928 | 1690 ft | 151 kts | 254° |
| 2026-05-06 06:47 | 48.68482 | 9.19402 | 2366 ft | 150 kts | 254° |
| 2026-05-06 06:48 | 48.68187 | 9.17810 | 2823 ft | 167 kts | 254° |
| 2026-05-06 06:48 | 48.67847 | 9.15999 | 3215 ft | 191 kts | 253° |
| 2026-05-06 06:48 | 48.67459 | 9.13940 | 3603 ft | 216 kts | 253° |
| 2026-05-06 06:48 | 48.67019 | 9.11624 | 4175 ft | 241 kts | 254° |
| 2026-05-06 06:49 | 48.66535 | 9.09086 | 4872 ft | 258 kts | 254° |
| 2026-05-06 06:49 | 48.66040 | 9.06498 | 5926 ft | 260 kts | 253° |
| 2026-05-06 06:49 | 48.65531 | 9.03852 | 6993 ft | 263 kts | 253° |
| 2026-05-06 06:49 | 48.65013 | 9.01184 | 8013 ft | 266 kts | 252° |
| 2026-05-06 06:50 | 48.64486 | 8.98481 | 9037 ft | 270 kts | 251° |
| 2026-05-06 06:50 | 48.63934 | 8.95752 | 9993 ft | 274 kts | 248° |
| 2026-05-06 06:50 | 48.62909 | 8.93230 | 10406 ft | 294 kts | 224° |
| 2026-05-06 06:50 | 48.61113 | 8.91548 | 10693 ft | 318 kts | 201° |
| 2026-05-06 06:51 | 48.58958 | 8.90396 | 11059 ft | 336 kts | 199° |
| 2026-05-06 06:51 | 48.56715 | 8.89239 | 11762 ft | 343 kts | 199° |
| 2026-05-06 06:51 | 48.54481 | 8.88089 | 12524 ft | 346 kts | 199° |
| 2026-05-06 06:51 | 48.52182 | 8.86898 | 13313 ft | 350 kts | 199° |
| 2026-05-06 06:52 | 48.49865 | 8.85685 | 14023 ft | 354 kts | 199° |
| 2026-05-06 06:52 | 48.47526 | 8.84455 | 14697 ft | 358 kts | 199° |
| 2026-05-06 06:52 | 48.45158 | 8.83206 | 15369 ft | 362 kts | 199° |
| 2026-05-06 06:52 | 48.42765 | 8.81943 | 16044 ft | 366 kts | 199° |
| 2026-05-06 06:53 | 48.40347 | 8.80667 | 16719 ft | 370 kts | 199° |
| 2026-05-06 06:53 | 48.37900 | 8.79381 | 17393 ft | 375 kts | 199° |
| 2026-05-06 06:53 | 48.35425 | 8.78083 | 18064 ft | 379 kts | 200° |
| 2026-05-06 06:53 | 48.32917 | 8.76769 | 18667 ft | 383 kts | 200° |
| 2026-05-06 06:54 | 48.30394 | 8.75446 | 19304 ft | 385 kts | 200° |
| 2026-05-06 06:54 | 48.27860 | 8.74120 | 19958 ft | 386 kts | 200° |
| 2026-05-06 06:54 | 48.25315 | 8.72791 | 20574 ft | 388 kts | 200° |
| 2026-05-06 06:54 | 48.22757 | 8.71454 | 21163 ft | 390 kts | 200° |
| 2026-05-06 06:55 | 48.20180 | 8.70111 | 21731 ft | 393 kts | 200° |
| 2026-05-06 06:55 | 48.17595 | 8.68767 | 22288 ft | 395 kts | 200° |
| 2026-05-06 06:55 | 48.14994 | 8.67416 | 22720 ft | 397 kts | 200° |
| 2026-05-06 06:55 | 48.12373 | 8.66056 | 22813 ft | 402 kts | 200° |
| 2026-05-06 06:56 | 48.09693 | 8.64665 | 22819 ft | 410 kts | 200° |
| 2026-05-06 06:56 | 48.06997 | 8.63271 | 22821 ft | 410 kts | 199° |
| 2026-05-06 06:56 | 48.04299 | 8.61874 | 22822 ft | 410 kts | 200° |
| 2026-05-06 06:56 | 48.01597 | 8.60472 | 22823 ft | 410 kts | 200° |
| 2026-05-06 06:57 | 47.98936 | 8.59095 | 22822 ft | 410 kts | 200° |
| 2026-05-06 06:57 | 47.96239 | 8.57704 | 22821 ft | 410 kts | 200° |
| 2026-05-06 06:57 | 47.93534 | 8.56308 | 22821 ft | 410 kts | 199° |
| 2026-05-06 06:57 | 47.90836 | 8.54916 | 22821 ft | 410 kts | 199° |
| 2026-05-06 06:58 | 47.88147 | 8.53531 | 22825 ft | 408 kts | 199° |
| 2026-05-06 06:58 | 47.85460 | 8.52147 | 22827 ft | 407 kts | 199° |
| 2026-05-06 06:58 | 47.82786 | 8.50775 | 22827 ft | 407 kts | 199° |
| 2026-05-06 06:58 | 47.80111 | 8.49405 | 22830 ft | 407 kts | 199° |
| 2026-05-06 06:59 | 47.77430 | 8.48036 | 22831 ft | 407 kts | 199° |
| 2026-05-06 06:59 | 47.74751 | 8.46667 | 22831 ft | 407 kts | 199° |
| 2026-05-06 06:59 | 47.72069 | 8.45294 | 22834 ft | 407 kts | 199° |
| 2026-05-06 06:59 | 47.69340 | 8.44182 | 22832 ft | 407 kts | 191° |
| 2026-05-06 07:00 | 47.66527 | 8.43771 | 22832 ft | 407 kts | 181° |
| 2026-05-06 07:00 | 47.63694 | 8.43846 | 22835 ft | 407 kts | 180° |
| 2026-05-06 07:00 | 47.60864 | 8.43929 | 22834 ft | 406 kts | 180° |
| 2026-05-06 07:00 | 47.58073 | 8.44002 | 22835 ft | 406 kts | 180° |
| 2026-05-06 07:01 | 47.55241 | 8.44074 | 22836 ft | 406 kts | 180° |
| 2026-05-06 07:01 | 47.52413 | 8.44142 | 22834 ft | 406 kts | 180° |
| 2026-05-06 07:01 | 47.49586 | 8.44206 | 22833 ft | 406 kts | 180° |
| 2026-05-06 07:01 | 47.46756 | 8.44269 | 22807 ft | 407 kts | 179° |
| 2026-05-06 07:02 | 47.43920 | 8.44333 | 22818 ft | 408 kts | 179° |
| 2026-05-06 07:02 | 47.41081 | 8.44398 | 22817 ft | 408 kts | 179° |
| 2026-05-06 07:02 | 47.38236 | 8.44468 | 22814 ft | 409 kts | 179° |
| 2026-05-06 07:02 | 47.35389 | 8.44542 | 22815 ft | 409 kts | 179° |
| 2026-05-06 07:03 | 47.32580 | 8.44617 | 22818 ft | 409 kts | 179° |
| 2026-05-06 07:03 | 47.29725 | 8.44691 | 22818 ft | 409 kts | 179° |
| 2026-05-06 07:03 | 47.26865 | 8.44764 | 22818 ft | 410 kts | 179° |
| 2026-05-06 07:03 | 47.24012 | 8.44838 | 22809 ft | 411 kts | 179° |
| 2026-05-06 07:04 | 47.21147 | 8.44912 | 22805 ft | 411 kts | 179° |
| 2026-05-06 07:04 | 47.18283 | 8.44985 | 22806 ft | 412 kts | 179° |
| 2026-05-06 07:04 | 47.15411 | 8.45055 | 22806 ft | 412 kts | 179° |
| 2026-05-06 07:04 | 47.12539 | 8.45125 | 22802 ft | 413 kts | 179° |
| 2026-05-06 07:05 | 47.09668 | 8.45198 | 22805 ft | 413 kts | 179° |
| 2026-05-06 07:05 | 47.06829 | 8.45269 | 22796 ft | 413 kts | 180° |
| 2026-05-06 07:05 | 47.03963 | 8.45340 | 22813 ft | 412 kts | 180° |
| 2026-05-06 07:05 | 47.01093 | 8.45408 | 22823 ft | 412 kts | 180° |
| 2026-05-06 07:06 | 46.98226 | 8.45478 | 22826 ft | 411 kts | 180° |
| 2026-05-06 07:06 | 46.95368 | 8.45547 | 22820 ft | 411 kts | 180° |
| 2026-05-06 07:06 | 46.92511 | 8.45616 | 22826 ft | 411 kts | 180° |
| 2026-05-06 07:06 | 46.89651 | 8.45683 | 22825 ft | 411 kts | 180° |
| 2026-05-06 07:07 | 46.86789 | 8.45753 | 22823 ft | 411 kts | 180° |
| 2026-05-06 07:07 | 46.83935 | 8.45826 | 22833 ft | 410 kts | 180° |
| 2026-05-06 07:07 | 46.81075 | 8.45901 | 22830 ft | 410 kts | 180° |
| 2026-05-06 07:07 | 46.78253 | 8.45974 | 22831 ft | 410 kts | 180° |
| 2026-05-06 07:08 | 46.75364 | 8.46048 | 22826 ft | 410 kts | 180° |
| 2026-05-06 07:08 | 46.72550 | 8.46116 | 22834 ft | 409 kts | 180° |
| 2026-05-06 07:08 | 46.69705 | 8.46185 | 22850 ft | 409 kts | 180° |
| 2026-05-06 07:08 | 46.66855 | 8.46253 | 22851 ft | 410 kts | 180° |
| 2026-05-06 07:09 | 46.64007 | 8.46319 | 22848 ft | 409 kts | 180° |
| 2026-05-06 07:09 | 46.61161 | 8.46391 | 22849 ft | 409 kts | 180° |
| 2026-05-06 07:09 | 46.58316 | 8.46467 | 22851 ft | 410 kts | 180° |
| 2026-05-06 07:09 | 46.55465 | 8.46542 | 22850 ft | 409 kts | 180° |
| 2026-05-06 07:10 | 46.52616 | 8.46617 | 22849 ft | 409 kts | 180° |
| 2026-05-06 07:10 | 46.49765 | 8.46690 | 22860 ft | 410 kts | 180° |
| 2026-05-06 07:10 | 46.46917 | 8.46759 | 22859 ft | 409 kts | 180° |
| 2026-05-06 07:10 | 46.44078 | 8.46825 | 22829 ft | 408 kts | 180° |
| 2026-05-06 07:11 | 46.41273 | 8.46890 | 22877 ft | 399 kts | 180° |
| 2026-05-06 07:11 | 46.38510 | 8.46955 | 22876 ft | 396 kts | 180° |
| 2026-05-06 07:11 | 46.35762 | 8.47019 | 22875 ft | 395 kts | 180° |
| 2026-05-06 07:11 | 46.33011 | 8.47084 | 22878 ft | 395 kts | 180° |
| 2026-05-06 07:12 | 46.30302 | 8.47149 | 22873 ft | 394 kts | 180° |
| 2026-05-06 07:12 | 46.27544 | 8.47218 | 22877 ft | 394 kts | 179° |
| 2026-05-06 07:12 | 46.24803 | 8.47412 | 22872 ft | 395 kts | 177° |
| 2026-05-06 07:12 | 46.22056 | 8.47761 | 22885 ft | 397 kts | 175° |
| 2026-05-06 07:13 | 46.19322 | 8.48194 | 22874 ft | 388 kts | 175° |
| 2026-05-06 07:13 | 46.16671 | 8.48645 | 22873 ft | 381 kts | 175° |
| 2026-05-06 07:13 | 46.14044 | 8.49082 | 22877 ft | 379 kts | 175° |
| 2026-05-06 07:13 | 46.11428 | 8.49611 | 22877 ft | 380 kts | 170° |
| 2026-05-06 07:14 | 46.08886 | 8.50683 | 22874 ft | 382 kts | 162° |
| 2026-05-06 07:14 | 46.06434 | 8.52007 | 22816 ft | 368 kts | 162° |
| 2026-05-06 07:14 | 46.04092 | 8.53273 | 22690 ft | 353 kts | 162° |
| 2026-05-06 07:14 | 46.01811 | 8.54504 | 22256 ft | 347 kts | 163° |
| 2026-05-06 07:15 | 45.99574 | 8.55706 | 21703 ft | 346 kts | 163° |
| 2026-05-06 07:15 | 45.97324 | 8.56913 | 21140 ft | 343 kts | 163° |
| 2026-05-06 07:15 | 45.95110 | 8.58101 | 20316 ft | 338 kts | 163° |
| 2026-05-06 07:15 | 45.92918 | 8.59275 | 19440 ft | 334 kts | 163° |
| 2026-05-06 07:16 | 45.90748 | 8.60451 | 18592 ft | 332 kts | 161° |
| 2026-05-06 07:16 | 45.88749 | 8.62126 | 17704 ft | 335 kts | 146° |
| 2026-05-06 07:16 | 45.86930 | 8.64240 | 17177 ft | 332 kts | 145° |
| 2026-05-06 07:16 | 45.85178 | 8.66286 | 17043 ft | 318 kts | 145° |
| 2026-05-06 07:17 | 45.83517 | 8.68222 | 16832 ft | 307 kts | 146° |
| 2026-05-06 07:17 | 45.81864 | 8.70140 | 16422 ft | 304 kts | 146° |
| 2026-05-06 07:17 | 45.80231 | 8.72028 | 15809 ft | 300 kts | 146° |
| 2026-05-06 07:17 | 45.78611 | 8.73896 | 15154 ft | 298 kts | 146° |
| 2026-05-06 07:18 | 45.77003 | 8.75746 | 14510 ft | 296 kts | 146° |
| 2026-05-06 07:18 | 45.75286 | 8.77294 | 13883 ft | 289 kts | 156° |
| 2026-05-06 07:18 | 45.73513 | 8.78651 | 13192 ft | 288 kts | 155° |
| 2026-05-06 07:18 | 45.71748 | 8.80003 | 12628 ft | 287 kts | 155° |
| 2026-05-06 07:19 | 45.69986 | 8.81356 | 12240 ft | 285 kts | 155° |
| 2026-05-06 07:19 | 45.68235 | 8.82704 | 11794 ft | 284 kts | 155° |
| 2026-05-06 07:19 | 45.66505 | 8.84037 | 11433 ft | 281 kts | 154° |
| 2026-05-06 07:19 | 45.64805 | 8.85346 | 11253 ft | 273 kts | 154° |
| 2026-05-06 07:20 | 45.63161 | 8.86609 | 11123 ft | 263 kts | 155° |
| 2026-05-06 07:20 | 45.61551 | 8.87677 | 10923 ft | 256 kts | 164° |
| 2026-05-06 07:20 | 45.59813 | 8.88237 | 10574 ft | 256 kts | 171° |
| 2026-05-06 07:20 | 45.58070 | 8.88700 | 10284 ft | 254 kts | 171° |
| 2026-05-06 07:21 | 45.56332 | 8.89165 | 9992 ft | 253 kts | 171° |
| 2026-05-06 07:21 | 45.54596 | 8.89631 | 9671 ft | 253 kts | 171° |
| 2026-05-06 07:21 | 45.52872 | 8.90099 | 9323 ft | 252 kts | 170° |
| 2026-05-06 07:21 | 45.51158 | 8.90567 | 9013 ft | 247 kts | 170° |
| 2026-05-06 07:22 | 45.49486 | 8.91023 | 8621 ft | 240 kts | 170° |
| 2026-05-06 07:22 | 45.47886 | 8.91463 | 8261 ft | 234 kts | 169° |
| 2026-05-06 07:22 | 45.46280 | 8.91901 | 7743 ft | 231 kts | 169° |
| 2026-05-06 07:22 | 45.44725 | 8.92324 | 7207 ft | 230 kts | 169° |
| 2026-05-06 07:23 | 45.43160 | 8.92749 | 6679 ft | 228 kts | 168° |
| 2026-05-06 07:23 | 45.41600 | 8.93172 | 6191 ft | 227 kts | 169° |
| 2026-05-06 07:23 | 45.40050 | 8.93575 | 5631 ft | 225 kts | 175° |
| 2026-05-06 07:23 | 45.38544 | 8.93072 | 5257 ft | 224 kts | 210° |
| 2026-05-06 07:24 | 45.37547 | 8.91468 | 5106 ft | 217 kts | 243° |
| 2026-05-06 07:24 | 45.37237 | 8.89370 | 4820 ft | 218 kts | 261° |
| 2026-05-06 07:24 | 45.37127 | 8.87221 | 4468 ft | 218 kts | 264° |
| 2026-05-06 07:24 | 45.37170 | 8.85795 | 4226 ft | 220 kts | 281° |
| 2026-05-06 07:25 | 45.38228 | 8.83357 | 3906 ft | 222 kts | 311° |
| 2026-05-06 07:25 | 45.39299 | 8.81758 | 3782 ft | 224 kts | 314° |
| 2026-05-06 07:25 | 45.40404 | 8.80191 | 3654 ft | 224 kts | 320° |
| 2026-05-06 07:25 | 45.41758 | 8.79206 | 3522 ft | 217 kts | 347° |
| 2026-05-06 07:26 | 45.42733 | 8.78926 | 3445 ft | 214 kts | 351° |
| 2026-05-06 07:26 | 45.44160 | 8.78538 | 3236 ft | 205 kts | 352° |
| 2026-05-06 07:26 | 45.45548 | 8.78159 | 3124 ft | 202 kts | 352° |
| 2026-05-06 07:26 | 45.46922 | 8.77782 | 3031 ft | 199 kts | 353° |
| 2026-05-06 07:27 | 45.48280 | 8.77410 | 3005 ft | 199 kts | 353° |
| 2026-05-06 07:27 | 45.49638 | 8.77037 | 2995 ft | 199 kts | 353° |
| 2026-05-06 07:27 | 45.50998 | 8.76663 | 2826 ft | 199 kts | 353° |
| 2026-05-06 07:27 | 45.52330 | 8.76296 | 2624 ft | 192 kts | 353° |
| 2026-05-06 07:28 | 45.53635 | 8.75937 | 2346 ft | 189 kts | 354° |
| 2026-05-06 07:28 | 45.54891 | 8.75589 | 2087 ft | 176 kts | 354° |
| 2026-05-06 07:28 | 45.57026 | 8.74998 | 1659 ft | 140 kts | 354° |
| 2026-05-06 07:29 | 45.57962 | 8.74742 | 1470 ft | 133 kts | 353° |
| 2026-05-06 07:29 | 45.58873 | 8.74493 | 1273 ft | 135 kts | 352° |
| 2026-05-06 07:29 | 45.59787 | 8.74242 | 1110 ft | 135 kts | 354° |
| 2026-05-06 07:29 | 45.60694 | 8.73991 | 903 ft | 132 kts | 354° |
| 2026-05-06 07:30 | 45.61587 | 8.73744 | 773 ft | 130 kts | 353° |
| 2026-05-06 07:30 | 45.62425 | 8.73521 | 743 ft | 109 kts | 348° |
| 2026-05-06 07:30 | 45.62996 | 8.73358 | 736 ft | 51 kts | 347° |
| 2026-05-06 07:30 | 45.63200 | 8.73183 | 740 ft | 29 kts | 312° |
| 2026-05-06 07:31 | 45.63315 | 8.72951 | 740 ft | 28 kts | 306° |
| 2026-05-06 07:31 | 45.63409 | 8.72733 | 741 ft | 24 kts | 283° |
| 2026-05-06 07:31 | 45.63390 | 8.72499 | 741 ft | 24 kts | 259° |
| 2026-05-06 07:31 | 45.63357 | 8.72267 | 741 ft | 24 kts | 259° |
| 2026-05-06 07:32 | 45.63326 | 8.72038 | 741 ft | 24 kts | 259° |
| 2026-05-06 07:32 | 45.63291 | 8.71863 | 740 ft | 13 kts | 218° |
| 2026-05-06 07:32 | 45.63211 | 8.71876 | 739 ft | 12 kts | 169° |
| 2026-05-06 07:32 | 45.63132 | 8.71898 | 741 ft | 12 kts | 169° |
| 2026-05-06 07:33 | 45.63052 | 8.71920 | 741 ft | 12 kts | 169° |
| 2026-05-06 07:33 | 45.62972 | 8.71941 | 741 ft | 12 kts | 169° |
| 2026-05-06 07:33 | 45.62891 | 8.71962 | 741 ft | 12 kts | 169° |
| 2026-05-06 07:33 | 45.62811 | 8.71984 | 741 ft | 12 kts | 168° |
| 2026-05-06 07:34 | 45.62730 | 8.72007 | 740 ft | 12 kts | 169° |
| 2026-05-06 07:34 | 45.62668 | 8.71967 | 741 ft | 10 kts | 248° |
| 2026-05-06 07:34 | 45.62648 | 8.71868 | 741 ft | 11 kts | 257° |
| 2026-05-06 07:34 | 45.62637 | 8.71758 | 741 ft | 12 kts | 264° |
| 2026-05-06 07:35 | 45.62628 | 8.71660 | 741 ft | 2 kts | 260° |
| 2026-05-06 07:35 | 45.62624 | 8.71632 | 739 ft | 4 kts | 260° |
| 2026-05-06 07:35 | 45.62614 | 8.71588 | 741 ft | 5 kts | 229° |
| 2026-05-06 07:35 | 45.62579 | 8.71594 | 739 ft | 6 kts | 165° |
| 2026-05-06 07:36 | 45.62534 | 8.71607 | 741 ft | 0 kts | 169° |
| 2026-05-06 07:36 | 45.62533 | 8.71607 | 741 ft | 0 kts | 169° |